sensor_id;sensor_type;location;lat;lon;timestamp;P1;durP1;ratioP1;P2;durP2;ratioP2
30398;SDS011;17195;50.838;7.214;2023-09-19T00:02:01;4.07;;;1.80;;
30398;SDS011;17195;50.838;7.214;2023-09-19T00:04:31;4.53;;;2.53;;
30398;SDS011;17195;50.838;7.214;2023-09-19T00:06:57;6.28;;;2.35;;
30398;SDS011;17195;50.838;7.214;2023-09-19T00:09:23;5.35;;;2.00;;
30398;SDS011;17195;50.838;7.214;2023-09-19T00:11:52;11.88;;;2.38;;
30398;SDS011;17195;50.838;7.214;2023-09-19T00:14:18;5.53;;;2.15;;
30398;SDS011;17195;50.838;7.214;2023-09-19T00:16:44;4.95;;;1.80;;
30398;SDS011;17195;50.838;7.214;2023-09-19T00:19:11;6.65;;;2.22;;
30398;SDS011;17195;50.838;7.214;2023-09-19T00:21:38;7.22;;;2.25;;
30398;SDS011;17195;50.838;7.214;2023-09-19T00:24:05;7.82;;;2.28;;
30398;SDS011;17195;50.838;7.214;2023-09-19T00:26:32;3.50;;;1.67;;
30398;SDS011;17195;50.838;7.214;2023-09-19T00:28:59;6.97;;;1.77;;
30398;SDS011;17195;50.838;7.214;2023-09-19T00:31:29;4.70;;;2.05;;
30398;SDS011;17195;50.838;7.214;2023-09-19T00:33:55;5.28;;;2.13;;
30398;SDS011;17195;50.838;7.214;2023-09-19T00:36:27;6.55;;;1.85;;
30398;SDS011;17195;50.838;7.214;2023-09-19T00:38:54;5.93;;;2.22;;
30398;SDS011;17195;50.838;7.214;2023-09-19T00:41:19;5.45;;;2.10;;
30398;SDS011;17195;50.838;7.214;2023-09-19T00:43:46;7.40;;;1.98;;
30398;SDS011;17195;50.838;7.214;2023-09-19T00:46:12;6.18;;;2.13;;
30398;SDS011;17195;50.838;7.214;2023-09-19T00:48:41;6.35;;;2.22;;
30398;SDS011;17195;50.838;7.214;2023-09-19T00:51:08;6.75;;;1.77;;
30398;SDS011;17195;50.838;7.214;2023-09-19T00:53:35;6.35;;;1.98;;
30398;SDS011;17195;50.838;7.214;2023-09-19T00:56:01;5.47;;;1.90;;
30398;SDS011;17195;50.838;7.214;2023-09-19T00:58:30;7.35;;;1.80;;
30398;SDS011;17195;50.838;7.214;2023-09-19T01:00:58;4.53;;;1.88;;
30398;SDS011;17195;50.838;7.214;2023-09-19T01:03:24;7.93;;;2.03;;
30398;SDS011;17195;50.838;7.214;2023-09-19T01:05:50;8.98;;;2.20;;
30398;SDS011;17195;50.838;7.214;2023-09-19T01:08:16;8.23;;;1.85;;
30398;SDS011;17195;50.838;7.214;2023-09-19T01:16:39;7.88;;;1.80;;
30398;SDS011;17195;50.838;7.214;2023-09-19T01:22:13;7.32;;;1.73;;
30398;SDS011;17195;50.838;7.214;2023-09-19T01:30:28;4.53;;;1.48;;
30398;SDS011;17195;50.838;7.214;2023-09-19T01:32:59;5.60;;;1.58;;
30398;SDS011;17195;50.838;7.214;2023-09-19T01:35:25;7.15;;;1.98;;
30398;SDS011;17195;50.838;7.214;2023-09-19T01:37:51;7.72;;;1.70;;
30398;SDS011;17195;50.838;7.214;2023-09-19T01:40:18;4.60;;;1.30;;
30398;SDS011;17195;50.838;7.214;2023-09-19T01:45:46;8.35;;;2.08;;
30398;SDS011;17195;50.838;7.214;2023-09-19T01:51:13;3.28;;;1.30;;
30398;SDS011;17195;50.838;7.214;2023-09-19T01:53:50;5.47;;;1.77;;
30398;SDS011;17195;50.838;7.214;2023-09-19T01:56:32;5.50;;;1.80;;
30398;SDS011;17195;50.838;7.214;2023-09-19T01:59:07;6.15;;;1.45;;
30398;SDS011;17195;50.838;7.214;2023-09-19T02:01:38;8.03;;;1.30;;
30398;SDS011;17195;50.838;7.214;2023-09-19T02:04:05;6.90;;;1.63;;
30398;SDS011;17195;50.838;7.214;2023-09-19T02:06:32;8.25;;;1.45;;
30398;SDS011;17195;50.838;7.214;2023-09-19T02:08:59;5.60;;;1.27;;
30398;SDS011;17195;50.838;7.214;2023-09-19T02:11:24;13.15;;;2.40;;
30398;SDS011;17195;50.838;7.214;2023-09-19T02:13:50;6.90;;;1.70;;
30398;SDS011;17195;50.838;7.214;2023-09-19T02:16:19;7.22;;;2.13;;
30398;SDS011;17195;50.838;7.214;2023-09-19T02:18:45;4.97;;;2.05;;
30398;SDS011;17195;50.838;7.214;2023-09-19T02:21:15;6.22;;;1.60;;
30398;SDS011;17195;50.838;7.214;2023-09-19T02:23:42;5.05;;;1.55;;
30398;SDS011;17195;50.838;7.214;2023-09-19T02:26:08;6.15;;;1.73;;
30398;SDS011;17195;50.838;7.214;2023-09-19T02:28:34;9.27;;;1.90;;
30398;SDS011;17195;50.838;7.214;2023-09-19T02:31:00;9.60;;;1.92;;
30398;SDS011;17195;50.838;7.214;2023-09-19T02:33:26;8.95;;;1.70;;
30398;SDS011;17195;50.838;7.214;2023-09-19T02:35:55;8.77;;;1.83;;
30398;SDS011;17195;50.838;7.214;2023-09-19T02:38:25;14.48;;;2.05;;
30398;SDS011;17195;50.838;7.214;2023-09-19T02:40:52;7.82;;;1.92;;
30398;SDS011;17195;50.838;7.214;2023-09-19T02:43:18;11.07;;;2.53;;
30398;SDS011;17195;50.838;7.214;2023-09-19T02:45:44;10.38;;;1.90;;
30398;SDS011;17195;50.838;7.214;2023-09-19T02:48:11;10.30;;;2.50;;
30398;SDS011;17195;50.838;7.214;2023-09-19T02:50:37;10.27;;;2.15;;
30398;SDS011;17195;50.838;7.214;2023-09-19T02:53:05;12.75;;;2.30;;
30398;SDS011;17195;50.838;7.214;2023-09-19T02:55:31;11.18;;;2.55;;
30398;SDS011;17195;50.838;7.214;2023-09-19T02:57:57;10.13;;;2.20;;
30398;SDS011;17195;50.838;7.214;2023-09-19T03:00:23;11.98;;;2.60;;
30398;SDS011;17195;50.838;7.214;2023-09-19T03:05:15;10.43;;;2.22;;
30398;SDS011;17195;50.838;7.214;2023-09-19T03:07:41;9.80;;;1.95;;
30398;SDS011;17195;50.838;7.214;2023-09-19T03:10:08;10.27;;;2.05;;
30398;SDS011;17195;50.838;7.214;2023-09-19T03:12:34;10.82;;;1.92;;
30398;SDS011;17195;50.838;7.214;2023-09-19T03:15:00;13.20;;;2.35;;
30398;SDS011;17195;50.838;7.214;2023-09-19T03:17:26;11.30;;;2.28;;
30398;SDS011;17195;50.838;7.214;2023-09-19T03:19:52;11.32;;;2.25;;
30398;SDS011;17195;50.838;7.214;2023-09-19T03:22:18;10.23;;;2.33;;
30398;SDS011;17195;50.838;7.214;2023-09-19T03:24:44;9.90;;;1.73;;
30398;SDS011;17195;50.838;7.214;2023-09-19T03:27:11;12.23;;;2.03;;
30398;SDS011;17195;50.838;7.214;2023-09-19T03:29:39;12.80;;;2.67;;
30398;SDS011;17195;50.838;7.214;2023-09-19T03:32:05;9.65;;;2.58;;
30398;SDS011;17195;50.838;7.214;2023-09-19T03:34:31;10.10;;;2.22;;
30398;SDS011;17195;50.838;7.214;2023-09-19T03:36:56;10.05;;;2.22;;
30398;SDS011;17195;50.838;7.214;2023-09-19T03:39:22;11.75;;;2.85;;
30398;SDS011;17195;50.838;7.214;2023-09-19T03:41:48;9.60;;;2.33;;
30398;SDS011;17195;50.838;7.214;2023-09-19T03:44:14;12.25;;;2.03;;
30398;SDS011;17195;50.838;7.214;2023-09-19T03:46:40;9.70;;;2.08;;
30398;SDS011;17195;50.838;7.214;2023-09-19T03:49:05;8.80;;;1.85;;
30398;SDS011;17195;50.838;7.214;2023-09-19T03:51:31;6.70;;;2.13;;
30398;SDS011;17195;50.838;7.214;2023-09-19T03:53:59;9.38;;;2.30;;
30398;SDS011;17195;50.838;7.214;2023-09-19T03:56:25;10.70;;;2.38;;
30398;SDS011;17195;50.838;7.214;2023-09-19T03:58:50;9.63;;;2.47;;
30398;SDS011;17195;50.838;7.214;2023-09-19T04:01:16;10.93;;;2.38;;
30398;SDS011;17195;50.838;7.214;2023-09-19T04:03:43;17.65;;;2.20;;
30398;SDS011;17195;50.838;7.214;2023-09-19T04:06:15;15.48;;;2.92;;
30398;SDS011;17195;50.838;7.214;2023-09-19T04:08:41;10.02;;;2.08;;
30398;SDS011;17195;50.838;7.214;2023-09-19T04:11:08;12.50;;;2.17;;
30398;SDS011;17195;50.838;7.214;2023-09-19T04:13:34;12.18;;;2.55;;
30398;SDS011;17195;50.838;7.214;2023-09-19T04:16:00;9.93;;;2.22;;
30398;SDS011;17195;50.838;7.214;2023-09-19T04:18:25;15.68;;;2.35;;
30398;SDS011;17195;50.838;7.214;2023-09-19T04:20:51;9.80;;;2.03;;
30398;SDS011;17195;50.838;7.214;2023-09-19T04:23:17;10.02;;;1.70;;
30398;SDS011;17195;50.838;7.214;2023-09-19T04:25:45;9.25;;;1.67;;
30398;SDS011;17195;50.838;7.214;2023-09-19T04:28:10;9.88;;;2.30;;
30398;SDS011;17195;50.838;7.214;2023-09-19T04:30:39;8.30;;;2.03;;
30398;SDS011;17195;50.838;7.214;2023-09-19T04:33:07;8.98;;;1.80;;
30398;SDS011;17195;50.838;7.214;2023-09-19T04:35:33;10.13;;;2.00;;
30398;SDS011;17195;50.838;7.214;2023-09-19T04:37:59;9.30;;;1.90;;
30398;SDS011;17195;50.838;7.214;2023-09-19T04:40:25;9.25;;;2.08;;
30398;SDS011;17195;50.838;7.214;2023-09-19T04:42:54;8.55;;;2.08;;
30398;SDS011;17195;50.838;7.214;2023-09-19T04:45:24;7.30;;;2.05;;
30398;SDS011;17195;50.838;7.214;2023-09-19T04:47:51;8.63;;;2.25;;
30398;SDS011;17195;50.838;7.214;2023-09-19T04:50:17;13.60;;;2.58;;
30398;SDS011;17195;50.838;7.214;2023-09-19T04:52:43;8.25;;;2.38;;
30398;SDS011;17195;50.838;7.214;2023-09-19T04:55:13;7.72;;;1.98;;
30398;SDS011;17195;50.838;7.214;2023-09-19T04:57:41;8.43;;;2.30;;
30398;SDS011;17195;50.838;7.214;2023-09-19T05:00:08;7.15;;;2.03;;
30398;SDS011;17195;50.838;7.214;2023-09-19T05:02:39;8.30;;;2.03;;
30398;SDS011;17195;50.838;7.214;2023-09-19T05:05:06;7.53;;;1.90;;
30398;SDS011;17195;50.838;7.214;2023-09-19T05:07:33;8.25;;;2.17;;
30398;SDS011;17195;50.838;7.214;2023-09-19T05:09:59;7.43;;;2.00;;
30398;SDS011;17195;50.838;7.214;2023-09-19T05:12:26;11.27;;;2.13;;
30398;SDS011;17195;50.838;7.214;2023-09-19T05:14:52;5.93;;;1.92;;
30398;SDS011;17195;50.838;7.214;2023-09-19T05:17:17;6.53;;;1.52;;
30398;SDS011;17195;50.838;7.214;2023-09-19T05:19:43;11.63;;;2.20;;
30398;SDS011;17195;50.838;7.214;2023-09-19T05:22:08;7.80;;;1.90;;
30398;SDS011;17195;50.838;7.214;2023-09-19T05:24:34;12.30;;;2.65;;
30398;SDS011;17195;50.838;7.214;2023-09-19T05:27:00;6.60;;;2.08;;
30398;SDS011;17195;50.838;7.214;2023-09-19T05:29:26;8.68;;;2.30;;
30398;SDS011;17195;50.838;7.214;2023-09-19T05:31:51;10.20;;;2.50;;
30398;SDS011;17195;50.838;7.214;2023-09-19T05:34:19;7.03;;;1.60;;
30398;SDS011;17195;50.838;7.214;2023-09-19T05:36:45;7.97;;;2.00;;
30398;SDS011;17195;50.838;7.214;2023-09-19T05:39:10;10.00;;;2.78;;
30398;SDS011;17195;50.838;7.214;2023-09-19T05:41:37;10.65;;;2.78;;
30398;SDS011;17195;50.838;7.214;2023-09-19T05:44:05;9.13;;;1.95;;
30398;SDS011;17195;50.838;7.214;2023-09-19T05:46:32;7.25;;;2.00;;
30398;SDS011;17195;50.838;7.214;2023-09-19T05:48:57;10.32;;;1.83;;
30398;SDS011;17195;50.838;7.214;2023-09-19T05:51:23;6.47;;;2.03;;
30398;SDS011;17195;50.838;7.214;2023-09-19T05:53:49;7.93;;;2.15;;
30398;SDS011;17195;50.838;7.214;2023-09-19T05:56:14;7.53;;;1.92;;
30398;SDS011;17195;50.838;7.214;2023-09-19T05:58:40;9.88;;;2.53;;
30398;SDS011;17195;50.838;7.214;2023-09-19T06:01:09;11.60;;;1.80;;
30398;SDS011;17195;50.838;7.214;2023-09-19T06:03:35;11.45;;;2.08;;
30398;SDS011;17195;50.838;7.214;2023-09-19T06:06:03;10.25;;;2.90;;
30398;SDS011;17195;50.838;7.214;2023-09-19T06:08:32;9.10;;;2.13;;
30398;SDS011;17195;50.838;7.214;2023-09-19T06:10:58;10.38;;;2.45;;
30398;SDS011;17195;50.838;7.214;2023-09-19T06:13:24;7.72;;;2.13;;
30398;SDS011;17195;50.838;7.214;2023-09-19T06:15:51;10.77;;;1.88;;
30398;SDS011;17195;50.838;7.214;2023-09-19T06:18:17;6.15;;;1.83;;
30398;SDS011;17195;50.838;7.214;2023-09-19T06:20:47;12.57;;;2.60;;
30398;SDS011;17195;50.838;7.214;2023-09-19T06:23:16;11.10;;;2.33;;
30398;SDS011;17195;50.838;7.214;2023-09-19T06:25:42;7.90;;;2.38;;
30398;SDS011;17195;50.838;7.214;2023-09-19T06:28:08;10.20;;;2.30;;
30398;SDS011;17195;50.838;7.214;2023-09-19T06:30:37;11.88;;;2.22;;
30398;SDS011;17195;50.838;7.214;2023-09-19T06:33:05;7.47;;;1.80;;
30398;SDS011;17195;50.838;7.214;2023-09-19T06:35:32;7.65;;;2.40;;
30398;SDS011;17195;50.838;7.214;2023-09-19T06:37:58;12.35;;;2.40;;
30398;SDS011;17195;50.838;7.214;2023-09-19T06:40:24;11.80;;;2.53;;
30398;SDS011;17195;50.838;7.214;2023-09-19T06:42:52;13.77;;;2.25;;
30398;SDS011;17195;50.838;7.214;2023-09-19T06:45:19;10.27;;;2.58;;
30398;SDS011;17195;50.838;7.214;2023-09-19T06:47:45;9.65;;;2.15;;
30398;SDS011;17195;50.838;7.214;2023-09-19T06:50:14;10.73;;;2.50;;
30398;SDS011;17195;50.838;7.214;2023-09-19T06:52:40;13.55;;;2.40;;
30398;SDS011;17195;50.838;7.214;2023-09-19T06:55:06;17.15;;;2.20;;
30398;SDS011;17195;50.838;7.214;2023-09-19T06:57:32;6.90;;;2.13;;
30398;SDS011;17195;50.838;7.214;2023-09-19T06:59:58;9.70;;;2.50;;
30398;SDS011;17195;50.838;7.214;2023-09-19T07:02:23;9.07;;;2.72;;
30398;SDS011;17195;50.838;7.214;2023-09-19T07:04:49;11.45;;;2.50;;
30398;SDS011;17195;50.838;7.214;2023-09-19T07:07:15;11.43;;;2.28;;
30398;SDS011;17195;50.838;7.214;2023-09-19T07:09:41;14.25;;;2.90;;
30398;SDS011;17195;50.838;7.214;2023-09-19T07:12:07;14.73;;;2.53;;
30398;SDS011;17195;50.838;7.214;2023-09-19T07:14:33;12.23;;;2.75;;
30398;SDS011;17195;50.838;7.214;2023-09-19T07:16:58;10.85;;;2.28;;
30398;SDS011;17195;50.838;7.214;2023-09-19T07:19:25;17.75;;;2.25;;
30398;SDS011;17195;50.838;7.214;2023-09-19T07:21:53;17.45;;;2.78;;
30398;SDS011;17195;50.838;7.214;2023-09-19T07:24:19;9.73;;;1.90;;
30398;SDS011;17195;50.838;7.214;2023-09-19T07:26:47;13.25;;;2.40;;
30398;SDS011;17195;50.838;7.214;2023-09-19T07:29:13;9.38;;;1.65;;
30398;SDS011;17195;50.838;7.214;2023-09-19T07:31:38;10.82;;;1.77;;
30398;SDS011;17195;50.838;7.214;2023-09-19T07:34:04;11.68;;;2.40;;
30398;SDS011;17195;50.838;7.214;2023-09-19T07:36:30;13.30;;;2.78;;
30398;SDS011;17195;50.838;7.214;2023-09-19T07:38:57;9.07;;;2.08;;
30398;SDS011;17195;50.838;7.214;2023-09-19T07:41:23;6.68;;;1.75;;
30398;SDS011;17195;50.838;7.214;2023-09-19T07:43:49;11.73;;;2.30;;
30398;SDS011;17195;50.838;7.214;2023-09-19T07:46:14;17.13;;;3.33;;
30398;SDS011;17195;50.838;7.214;2023-09-19T07:48:40;9.57;;;2.38;;
30398;SDS011;17195;50.838;7.214;2023-09-19T07:51:06;11.45;;;2.20;;
30398;SDS011;17195;50.838;7.214;2023-09-19T07:53:33;15.35;;;2.35;;
30398;SDS011;17195;50.838;7.214;2023-09-19T07:56:03;8.77;;;2.45;;
30398;SDS011;17195;50.838;7.214;2023-09-19T07:58:30;8.43;;;2.72;;
30398;SDS011;17195;50.838;7.214;2023-09-19T08:00:56;8.57;;;2.58;;
30398;SDS011;17195;50.838;7.214;2023-09-19T08:03:27;11.50;;;2.30;;
30398;SDS011;17195;50.838;7.214;2023-09-19T08:05:52;8.95;;;2.47;;
30398;SDS011;17195;50.838;7.214;2023-09-19T08:08:18;11.85;;;2.53;;
30398;SDS011;17195;50.838;7.214;2023-09-19T08:10:43;12.32;;;2.13;;
30398;SDS011;17195;50.838;7.214;2023-09-19T08:13:14;9.18;;;1.92;;
30398;SDS011;17195;50.838;7.214;2023-09-19T08:15:44;14.40;;;2.30;;
30398;SDS011;17195;50.838;7.214;2023-09-19T08:18:10;10.93;;;2.33;;
30398;SDS011;17195;50.838;7.214;2023-09-19T08:20:37;9.82;;;2.30;;
30398;SDS011;17195;50.838;7.214;2023-09-19T08:23:03;14.57;;;2.33;;
30398;SDS011;17195;50.838;7.214;2023-09-19T08:25:29;7.70;;;2.33;;
30398;SDS011;17195;50.838;7.214;2023-09-19T08:27:55;12.65;;;2.70;;
30398;SDS011;17195;50.838;7.214;2023-09-19T08:30:25;9.90;;;2.47;;
30398;SDS011;17195;50.838;7.214;2023-09-19T08:32:58;11.75;;;1.75;;
30398;SDS011;17195;50.838;7.214;2023-09-19T08:35:24;11.20;;;2.47;;
30398;SDS011;17195;50.838;7.214;2023-09-19T08:37:50;10.77;;;2.95;;
30398;SDS011;17195;50.838;7.214;2023-09-19T08:40:16;12.80;;;2.38;;
30398;SDS011;17195;50.838;7.214;2023-09-19T08:42:52;12.90;;;2.95;;
30398;SDS011;17195;50.838;7.214;2023-09-19T08:45:22;10.32;;;2.25;;
30398;SDS011;17195;50.838;7.214;2023-09-19T08:50:41;9.45;;;2.13;;
30398;SDS011;17195;50.838;7.214;2023-09-19T08:53:19;9.50;;;2.35;;
30398;SDS011;17195;50.838;7.214;2023-09-19T08:55:57;11.55;;;2.03;;
30398;SDS011;17195;50.838;7.214;2023-09-19T08:58:26;12.73;;;2.30;;
30398;SDS011;17195;50.838;7.214;2023-09-19T09:01:00;10.73;;;2.50;;
30398;SDS011;17195;50.838;7.214;2023-09-19T09:03:26;13.05;;;2.55;;
30398;SDS011;17195;50.838;7.214;2023-09-19T09:05:57;11.02;;;2.03;;
30398;SDS011;17195;50.838;7.214;2023-09-19T09:08:23;8.52;;;2.42;;
30398;SDS011;17195;50.838;7.214;2023-09-19T09:10:49;10.00;;;2.45;;
30398;SDS011;17195;50.838;7.214;2023-09-19T09:13:16;10.02;;;2.78;;
30398;SDS011;17195;50.838;7.214;2023-09-19T09:15:42;13.57;;;2.33;;
30398;SDS011;17195;50.838;7.214;2023-09-19T09:18:09;10.32;;;2.03;;
30398;SDS011;17195;50.838;7.214;2023-09-19T09:20:35;7.47;;;1.90;;
30398;SDS011;17195;50.838;7.214;2023-09-19T09:23:01;12.73;;;2.40;;
30398;SDS011;17195;50.838;7.214;2023-09-19T09:25:50;8.27;;;2.20;;
30398;SDS011;17195;50.838;7.214;2023-09-19T09:28:22;8.27;;;2.10;;
30398;SDS011;17195;50.838;7.214;2023-09-19T09:30:49;11.02;;;2.00;;
30398;SDS011;17195;50.838;7.214;2023-09-19T09:33:16;13.10;;;2.53;;
30398;SDS011;17195;50.838;7.214;2023-09-19T09:35:49;7.30;;;1.60;;
30398;SDS011;17195;50.838;7.214;2023-09-19T09:38:22;10.65;;;2.00;;
30398;SDS011;17195;50.838;7.214;2023-09-19T09:40:59;7.38;;;2.10;;
30398;SDS011;17195;50.838;7.214;2023-09-19T09:46:07;7.90;;;1.77;;
30398;SDS011;17195;50.838;7.214;2023-09-19T09:51:39;7.88;;;1.50;;
30398;SDS011;17195;50.838;7.214;2023-09-19T09:54:15;7.50;;;2.05;;
30398;SDS011;17195;50.838;7.214;2023-09-19T09:59:52;7.60;;;1.80;;
30398;SDS011;17195;50.838;7.214;2023-09-19T10:02:28;7.85;;;1.85;;
30398;SDS011;17195;50.838;7.214;2023-09-19T10:05:03;9.73;;;1.42;;
30398;SDS011;17195;50.838;7.214;2023-09-19T10:07:45;10.77;;;2.35;;
30398;SDS011;17195;50.838;7.214;2023-09-19T10:10:29;7.60;;;2.03;;
30398;SDS011;17195;50.838;7.214;2023-09-19T10:13:10;9.50;;;2.38;;
30398;SDS011;17195;50.838;7.214;2023-09-19T10:15:38;6.68;;;1.70;;
30398;SDS011;17195;50.838;7.214;2023-09-19T10:18:07;7.18;;;1.83;;
30398;SDS011;17195;50.838;7.214;2023-09-19T10:20:42;10.25;;;2.08;;
30398;SDS011;17195;50.838;7.214;2023-09-19T10:23:10;13.90;;;2.38;;
30398;SDS011;17195;50.838;7.214;2023-09-19T10:25:38;9.15;;;2.25;;
30398;SDS011;17195;50.838;7.214;2023-09-19T10:28:11;6.20;;;1.92;;
30398;SDS011;17195;50.838;7.214;2023-09-19T10:30:41;5.45;;;1.50;;
30398;SDS011;17195;50.838;7.214;2023-09-19T10:33:10;5.60;;;1.50;;
30398;SDS011;17195;50.838;7.214;2023-09-19T10:35:40;6.13;;;1.73;;
30398;SDS011;17195;50.838;7.214;2023-09-19T10:38:17;4.97;;;1.55;;
30398;SDS011;17195;50.838;7.214;2023-09-19T10:40:50;8.23;;;1.83;;
30398;SDS011;17195;50.838;7.214;2023-09-19T10:43:18;6.65;;;1.70;;
30398;SDS011;17195;50.838;7.214;2023-09-19T10:45:46;5.55;;;1.70;;
30398;SDS011;17195;50.838;7.214;2023-09-19T10:48:14;6.72;;;1.73;;
30398;SDS011;17195;50.838;7.214;2023-09-19T10:51:05;5.53;;;2.00;;
30398;SDS011;17195;50.838;7.214;2023-09-19T10:54:10;5.75;;;1.58;;
30398;SDS011;17195;50.838;7.214;2023-09-19T10:56:39;6.75;;;1.75;;
30398;SDS011;17195;50.838;7.214;2023-09-19T10:59:12;5.25;;;1.50;;
30398;SDS011;17195;50.838;7.214;2023-09-19T11:12:47;7.18;;;1.77;;
30398;SDS011;17195;50.838;7.214;2023-09-19T11:26:47;16.20;;;2.85;;
30398;SDS011;17195;50.838;7.214;2023-09-19T11:31:53;4.35;;;1.48;;
30398;SDS011;17195;50.838;7.214;2023-09-19T11:39:38;7.05;;;2.00;;
30398;SDS011;17195;50.838;7.214;2023-09-19T11:48:12;6.43;;;2.03;;
30398;SDS011;17195;50.838;7.214;2023-09-19T11:50:41;6.45;;;2.03;;
30398;SDS011;17195;50.838;7.214;2023-09-19T11:53:13;7.70;;;1.75;;
30398;SDS011;17195;50.838;7.214;2023-09-19T11:55:41;4.43;;;1.50;;
30398;SDS011;17195;50.838;7.214;2023-09-19T11:58:08;6.07;;;2.20;;
30398;SDS011;17195;50.838;7.214;2023-09-19T12:00:34;8.13;;;1.48;;
30398;SDS011;17195;50.838;7.214;2023-09-19T12:03:07;5.93;;;1.73;;
30398;SDS011;17195;50.838;7.214;2023-09-19T12:05:34;9.32;;;1.95;;
30398;SDS011;17195;50.838;7.214;2023-09-19T12:08:02;7.38;;;1.67;;
30398;SDS011;17195;50.838;7.214;2023-09-19T12:10:29;7.72;;;2.10;;
30398;SDS011;17195;50.838;7.214;2023-09-19T12:12:54;4.70;;;1.50;;
30398;SDS011;17195;50.838;7.214;2023-09-19T12:15:27;3.70;;;1.45;;
30398;SDS011;17195;50.838;7.214;2023-09-19T12:17:59;5.63;;;1.65;;
30398;SDS011;17195;50.838;7.214;2023-09-19T12:20:24;5.60;;;1.77;;
30398;SDS011;17195;50.838;7.214;2023-09-19T12:22:50;8.50;;;1.90;;
30398;SDS011;17195;50.838;7.214;2023-09-19T12:25:15;7.72;;;1.92;;
30398;SDS011;17195;50.838;7.214;2023-09-19T12:27:49;5.50;;;1.50;;
30398;SDS011;17195;50.838;7.214;2023-09-19T12:30:18;6.55;;;1.77;;
30398;SDS011;17195;50.838;7.214;2023-09-19T12:32:45;5.93;;;1.73;;
30398;SDS011;17195;50.838;7.214;2023-09-19T12:35:29;4.82;;;1.80;;
30398;SDS011;17195;50.838;7.214;2023-09-19T12:37:59;8.32;;;1.92;;
30398;SDS011;17195;50.838;7.214;2023-09-19T12:40:25;6.32;;;2.00;;
30398;SDS011;17195;50.838;7.214;2023-09-19T12:42:54;5.55;;;1.90;;
30398;SDS011;17195;50.838;7.214;2023-09-19T12:45:32;6.15;;;1.92;;
30398;SDS011;17195;50.838;7.214;2023-09-19T12:51:12;5.78;;;1.48;;
30398;SDS011;17195;50.838;7.214;2023-09-19T12:53:39;5.15;;;1.50;;
30398;SDS011;17195;50.838;7.214;2023-09-19T12:56:16;6.10;;;1.80;;
30398;SDS011;17195;50.838;7.214;2023-09-19T12:58:52;6.90;;;1.65;;
30398;SDS011;17195;50.838;7.214;2023-09-19T13:01:21;6.90;;;1.52;;
30398;SDS011;17195;50.838;7.214;2023-09-19T13:06:40;4.45;;;1.20;;
30398;SDS011;17195;50.838;7.214;2023-09-19T13:09:08;5.30;;;1.27;;
30398;SDS011;17195;50.838;7.214;2023-09-19T13:11:38;3.42;;;1.23;;
30398;SDS011;17195;50.838;7.214;2023-09-19T13:19:34;8.05;;;1.50;;
30398;SDS011;17195;50.838;7.214;2023-09-19T13:22:01;4.45;;;1.05;;
30398;SDS011;17195;50.838;7.214;2023-09-19T13:24:28;2.78;;;1.20;;
30398;SDS011;17195;50.838;7.214;2023-09-19T13:26:55;3.28;;;1.10;;
30398;SDS011;17195;50.838;7.214;2023-09-19T13:29:21;3.38;;;1.20;;
30398;SDS011;17195;50.838;7.214;2023-09-19T13:31:51;3.53;;;1.23;;
30398;SDS011;17195;50.838;7.214;2023-09-19T13:34:20;6.85;;;1.55;;
30398;SDS011;17195;50.838;7.214;2023-09-19T13:36:46;3.42;;;1.00;;
30398;SDS011;17195;50.838;7.214;2023-09-19T13:39:15;5.53;;;1.40;;
30398;SDS011;17195;50.838;7.214;2023-09-19T13:41:42;4.55;;;1.50;;
30398;SDS011;17195;50.838;7.214;2023-09-19T13:44:11;6.40;;;1.25;;
30398;SDS011;17195;50.838;7.214;2023-09-19T13:46:36;3.65;;;1.10;;
30398;SDS011;17195;50.838;7.214;2023-09-19T13:49:02;5.35;;;1.25;;
30398;SDS011;17195;50.838;7.214;2023-09-19T13:51:31;4.80;;;1.20;;
30398;SDS011;17195;50.838;7.214;2023-09-19T13:53:57;6.10;;;1.20;;
30398;SDS011;17195;50.838;7.214;2023-09-19T13:56:24;2.53;;;0.90;;
30398;SDS011;17195;50.838;7.214;2023-09-19T13:58:52;4.60;;;1.00;;
30398;SDS011;17195;50.838;7.214;2023-09-19T14:01:21;2.72;;;0.88;;
30398;SDS011;17195;50.838;7.214;2023-09-19T14:03:46;5.25;;;1.20;;
30398;SDS011;17195;50.838;7.214;2023-09-19T14:06:16;3.63;;;0.80;;
30398;SDS011;17195;50.838;7.214;2023-09-19T14:08:42;3.58;;;1.10;;
30398;SDS011;17195;50.838;7.214;2023-09-19T14:11:09;4.20;;;0.77;;
30398;SDS011;17195;50.838;7.214;2023-09-19T14:13:35;5.38;;;1.30;;
30398;SDS011;17195;50.838;7.214;2023-09-19T14:16:04;2.53;;;1.02;;
30398;SDS011;17195;50.838;7.214;2023-09-19T14:18:30;2.80;;;1.10;;
30398;SDS011;17195;50.838;7.214;2023-09-19T14:20:56;2.47;;;1.05;;
30398;SDS011;17195;50.838;7.214;2023-09-19T14:23:22;2.65;;;0.82;;
30398;SDS011;17195;50.838;7.214;2023-09-19T14:25:48;2.08;;;0.82;;
30398;SDS011;17195;50.838;7.214;2023-09-19T14:28:15;3.53;;;1.08;;
30398;SDS011;17195;50.838;7.214;2023-09-19T14:30:40;3.30;;;0.85;;
30398;SDS011;17195;50.838;7.214;2023-09-19T14:33:06;3.45;;;0.98;;
30398;SDS011;17195;50.838;7.214;2023-09-19T14:35:32;2.97;;;1.05;;
30398;SDS011;17195;50.838;7.214;2023-09-19T14:37:58;3.38;;;0.82;;
30398;SDS011;17195;50.838;7.214;2023-09-19T14:40:23;4.68;;;1.05;;
30398;SDS011;17195;50.838;7.214;2023-09-19T14:42:49;5.90;;;1.05;;
30398;SDS011;17195;50.838;7.214;2023-09-19T14:45:14;2.35;;;0.70;;
30398;SDS011;17195;50.838;7.214;2023-09-19T14:47:43;2.03;;;0.77;;
30398;SDS011;17195;50.838;7.214;2023-09-19T14:50:09;2.53;;;0.75;;
30398;SDS011;17195;50.838;7.214;2023-09-19T14:52:36;7.07;;;1.25;;
30398;SDS011;17195;50.838;7.214;2023-09-19T14:55:02;5.18;;;1.10;;
30398;SDS011;17195;50.838;7.214;2023-09-19T14:57:29;2.60;;;0.90;;
30398;SDS011;17195;50.838;7.214;2023-09-19T14:59:55;3.15;;;0.98;;
30398;SDS011;17195;50.838;7.214;2023-09-19T15:02:21;3.47;;;1.08;;
30398;SDS011;17195;50.838;7.214;2023-09-19T15:04:46;5.80;;;0.80;;
30398;SDS011;17195;50.838;7.214;2023-09-19T15:07:15;5.47;;;0.98;;
30398;SDS011;17195;50.838;7.214;2023-09-19T15:09:41;1.90;;;0.70;;
30398;SDS011;17195;50.838;7.214;2023-09-19T15:12:07;2.78;;;0.80;;
30398;SDS011;17195;50.838;7.214;2023-09-19T15:14:32;4.68;;;1.05;;
30398;SDS011;17195;50.838;7.214;2023-09-19T15:16:58;4.40;;;1.10;;
30398;SDS011;17195;50.838;7.214;2023-09-19T15:19:23;4.32;;;1.27;;
30398;SDS011;17195;50.838;7.214;2023-09-19T15:21:49;3.88;;;1.20;;
30398;SDS011;17195;50.838;7.214;2023-09-19T15:24:14;3.42;;;1.20;;
30398;SDS011;17195;50.838;7.214;2023-09-19T15:26:41;2.90;;;0.85;;
30398;SDS011;17195;50.838;7.214;2023-09-19T15:29:08;2.05;;;0.60;;
30398;SDS011;17195;50.838;7.214;2023-09-19T15:31:35;6.05;;;0.88;;
30398;SDS011;17195;50.838;7.214;2023-09-19T15:34:04;3.30;;;0.93;;
30398;SDS011;17195;50.838;7.214;2023-09-19T15:36:32;4.20;;;1.10;;
30398;SDS011;17195;50.838;7.214;2023-09-19T15:41:25;4.88;;;0.70;;
30398;SDS011;17195;50.838;7.214;2023-09-19T15:43:52;3.08;;;0.90;;
30398;SDS011;17195;50.838;7.214;2023-09-19T15:46:18;5.43;;;0.90;;
30398;SDS011;17195;50.838;7.214;2023-09-19T15:48:44;5.13;;;0.90;;
30398;SDS011;17195;50.838;7.214;2023-09-19T15:51:10;3.88;;;0.90;;
30398;SDS011;17195;50.838;7.214;2023-09-19T15:53:55;3.50;;;0.80;;
30398;SDS011;17195;50.838;7.214;2023-09-19T15:56:21;2.00;;;0.80;;
30398;SDS011;17195;50.838;7.214;2023-09-19T15:58:48;5.30;;;1.00;;
30398;SDS011;17195;50.838;7.214;2023-09-19T16:01:18;3.78;;;0.73;;
30398;SDS011;17195;50.838;7.214;2023-09-19T16:03:48;1.42;;;0.90;;
30398;SDS011;17195;50.838;7.214;2023-09-19T16:06:22;5.15;;;1.00;;
30398;SDS011;17195;50.838;7.214;2023-09-19T16:08:56;4.03;;;1.15;;
30398;SDS011;17195;50.838;7.214;2023-09-19T16:11:24;4.10;;;0.93;;
30398;SDS011;17195;50.838;7.214;2023-09-19T16:13:51;5.15;;;1.08;;